Time;durP1;ratioP1;P1;durP2;ratioP2;P2;SDS_P1;SDS_P2;PMS_P1;PMS_P2;Temp;Humidity;BMP_temperature;BMP_pressure;BME280_temperature;BME280_humidity;BME280_pressure;Samples;Min_cycle;Max_cycle;Signal;HPM_P1;HPM_P2
2023/11/18 00:01:49;;;;;;;2.40;1.13;;;;;;;;;;10519484;28;20290;-71
2023/11/18 00:06:50;;;;;;;1.20;0.98;;;;;;;;;;10508137;28;20031;-71
2023/11/18 00:11:51;;;;;;;1.00;0.60;;;;;;;;;;10514784;28;20180;-71
2023/11/18 00:16:51;;;;;;;2.40;1.20;;;;;;;;;;10525086;28;20013;-72
2023/11/18 00:21:51;;;;;;;1.30;1.00;;;;;;;;;;10528899;28;20020;-72
2023/11/18 00:26:52;;;;;;;1.48;0.90;;;;;;;;;;10524233;28;20334;-70
2023/11/18 00:31:52;;;;;;;4.35;2.08;;;;;;;;;;10520699;28;20074;-71
2023/11/18 00:36:52;;;;;;;1.30;0.63;;;;;;;;;;10523150;28;20056;-70
2023/11/18 00:41:53;;;;;;;1.23;0.90;;;;;;;;;;10510506;28;20004;-71
2023/11/18 00:46:53;;;;;;;1.48;1.05;;;;;;;;;;10524954;28;20016;-70
2023/11/18 00:51:53;;;;;;;1.58;1.05;;;;;;;;;;10520297;28;20310;-70
2023/11/18 00:56:53;;;;;;;1.23;0.85;;;;;;;;;;10524122;28;20012;-71
2023/11/18 01:01:54;;;;;;;1.58;0.90;;;;;;;;;;10513421;28;20067;-71
2023/11/18 01:06:54;;;;;;;1.10;1.00;;;;;;;;;;10501434;28;20305;-70
2023/11/18 01:11:54;;;;;;;1.35;1.23;;;;;;;;;;10519167;28;20277;-70
2023/11/18 01:16:54;;;;;;;1.75;1.50;;;;;;;;;;10520415;28;20255;-70
2023/11/18 01:21:55;;;;;;;2.40;1.27;;;;;;;;;;10522787;28;20028;-70
2023/11/18 01:26:55;;;;;;;1.73;1.60;;;;;;;;;;10523809;28;20310;-70
2023/11/18 01:31:56;;;;;;;2.47;1.75;;;;;;;;;;10525128;28;20023;-70
2023/11/18 01:36:57;;;;;;;2.75;2.55;;;;;;;;;;10518134;28;20230;-70
2023/11/18 01:41:59;;;;;;;2.22;1.75;;;;;;;;;;10528359;28;20110;-70
2023/11/18 01:47:00;;;;;;;2.17;1.90;;;;;;;;;;10523684;28;20028;-70
2023/11/18 01:52:01;;;;;;;5.22;1.80;;;;;;;;;;10521680;28;20039;-70
2023/11/18 01:57:05;;;;;;;2.78;2.05;;;;;;;;;;10516051;28;20024;-70
2023/11/18 02:02:06;;;;;;;2.50;2.08;;;;;;;;;;10513938;28;20143;-70
2023/11/18 02:07:09;;;;;;;2.77;2.10;;;;;;;;;;10524165;28;20058;-70
2023/11/18 02:12:27;;;;;;;2.72;1.95;;;;;;;;;;10522549;28;20094;-72
2023/11/18 02:17:27;;;;;;;;;;;;;;;;;;10515483;28;20020;-70
2023/11/18 02:22:28;;;;;;;3.22;2.25;;;;;;;;;;10519457;28;19935;-70
2023/11/18 02:27:28;;;;;;;2.27;2.07;;;;;;;;;;10517345;28;20031;-70
2023/11/18 02:32:35;;;;;;;2.47;2.20;;;;;;;;;;10520127;28;20269;-70
2023/11/18 02:37:39;;;;;;;3.83;2.63;;;;;;;;;;10520784;28;20023;-70
2023/11/18 02:42:44;;;;;;;3.17;2.88;;;;;;;;;;10527044;28;20068;-69
2023/11/18 02:47:45;;;;;;;2.90;2.20;;;;;;;;;;10523555;28;20112;-70
2023/11/18 02:52:45;;;;;;;2.92;2.58;;;;;;;;;;10512796;28;20054;-70
2023/11/18 02:57:46;;;;;;;3.83;3.08;;;;;;;;;;10521801;28;20290;-70
2023/11/18 03:02:51;;;;;;;3.55;3.25;;;;;;;;;;10519114;28;20303;-70
2023/11/18 03:07:53;;;;;;;3.90;3.17;;;;;;;;;;10521263;28;20024;-70
2023/11/18 03:12:54;;;;;;;4.65;3.22;;;;;;;;;;10525665;28;20017;-70
2023/11/18 03:17:54;;;;;;;3.38;3.08;;;;;;;;;;10513193;28;20090;-70
2023/11/18 03:22:54;;;;;;;4.15;3.15;;;;;;;;;;10520141;28;20078;-70
2023/11/18 03:27:55;;;;;;;4.90;3.25;;;;;;;;;;10509830;28;20265;-69
2023/11/18 03:32:55;;;;;;;3.72;3.40;;;;;;;;;;10505760;28;20040;-69
2023/11/18 03:37:55;;;;;;;4.53;3.30;;;;;;;;;;10527669;28;20004;-70
2023/11/18 03:42:58;;;;;;;3.38;2.72;;;;;;;;;;10512370;28;20017;-71
2023/11/18 03:48:00;;;;;;;3.67;3.17;;;;;;;;;;10508951;28;20024;-70
2023/11/18 03:53:04;;;;;;;4.07;3.65;;;;;;;;;;10525470;28;20024;-71
2023/11/18 03:58:04;;;;;;;8.57;3.30;;;;;;;;;;10516965;28;20060;-70
2023/11/18 04:03:06;;;;;;;4.80;3.80;;;;;;;;;;10519426;28;20028;-71
2023/11/18 04:08:06;;;;;;;4.70;3.28;;;;;;;;;;10514460;28;20026;-71
2023/11/18 04:13:07;;;;;;;7.00;4.30;;;;;;;;;;10512965;28;20024;-70
2023/11/18 04:18:07;;;;;;;3.92;3.42;;;;;;;;;;10523323;28;20027;-70
2023/11/18 04:23:07;;;;;;;4.28;3.50;;;;;;;;;;10519746;28;20058;-71
2023/11/18 04:28:07;;;;;;;5.93;4.27;;;;;;;;;;10524678;28;20027;-70
2023/11/18 04:33:08;;;;;;;4.40;3.67;;;;;;;;;;10519948;28;20043;-70
2023/11/18 04:38:09;;;;;;;4.80;3.60;;;;;;;;;;10512812;28;20211;-70
2023/11/18 04:43:10;;;;;;;5.78;4.50;;;;;;;;;;10515651;28;20210;-71
2023/11/18 04:48:12;;;;;;;4.70;3.70;;;;;;;;;;10517698;28;20028;-71
2023/11/18 04:53:13;;;;;;;4.55;3.58;;;;;;;;;;10522127;28;20050;-71
2023/11/18 04:58:13;;;;;;;3.93;2.93;;;;;;;;;;10518382;28;20079;-70
2023/11/18 05:03:14;;;;;;;3.55;3.08;;;;;;;;;;10527310;28;20331;-71
2023/11/18 05:08:18;;;;;;;3.63;2.60;;;;;;;;;;10527354;28;20043;-70
2023/11/18 05:13:19;;;;;;;3.85;2.85;;;;;;;;;;10523910;28;20107;-71
2023/11/18 05:18:19;;;;;;;3.33;3.00;;;;;;;;;;10530822;28;20015;-69
2023/11/18 05:23:19;;;;;;;4.23;3.43;;;;;;;;;;10517527;28;20028;-69
2023/11/18 05:28:19;;;;;;;3.60;2.50;;;;;;;;;;10527442;28;20031;-69
2023/11/18 05:33:20;;;;;;;6.70;2.93;;;;;;;;;;10513028;28;20043;-70
2023/11/18 05:38:26;;;;;;;3.92;2.63;;;;;;;;;;10522714;28;20016;-69
2023/11/18 05:43:36;;;;;;;5.70;3.53;;;;;;;;;;10523531;28;20130;-69
2023/11/18 05:48:36;;;;;;;3.22;2.60;;;;;;;;;;10517779;28;20023;-69
2023/11/18 05:53:46;;;;;;;2.17;1.60;;;;;;;;;;10518847;28;20091;-70
2023/11/18 05:58:46;;;;;;;1.83;1.50;;;;;;;;;;10517586;28;20088;-71
2023/11/18 06:03:47;;;;;;;2.90;1.85;;;;;;;;;;10517898;28;20019;-70
2023/11/18 06:08:47;;;;;;;2.33;1.80;;;;;;;;;;10520161;28;20011;-70
2023/11/18 06:13:49;;;;;;;1.13;1.03;;;;;;;;;;10510686;28;20016;-70
2023/11/18 06:18:50;;;;;;;4.22;1.00;;;;;;;;;;10524716;28;20417;-70
2023/11/18 06:23:51;;;;;;;1.58;1.10;;;;;;;;;;10531826;28;20012;-71
2023/11/18 06:28:51;;;;;;;1.90;1.42;;;;;;;;;;10521366;28;20020;-70
2023/11/18 06:33:52;;;;;;;1.52;1.13;;;;;;;;;;10520274;28;20044;-71
2023/11/18 06:38:52;;;;;;;1.08;0.93;;;;;;;;;;10520537;28;20042;-71
2023/11/18 06:48:57;;;;;;;1.33;0.95;;;;;;;;;;10525127;28;20012;-70
2023/11/18 06:53:57;;;;;;;2.90;1.75;;;;;;;;;;10521632;28;20044;-71
2023/11/18 06:58:57;;;;;;;2.58;1.20;;;;;;;;;;10516688;28;20038;-70
2023/11/18 07:03:58;;;;;;;1.73;1.05;;;;;;;;;;10527914;28;20286;-70
2023/11/18 07:09:00;;;;;;;3.33;1.52;;;;;;;;;;10515805;28;20036;-70
2023/11/18 07:14:00;;;;;;;1.23;0.85;;;;;;;;;;10512370;28;20019;-70
2023/11/18 07:19:00;;;;;;;0.75;0.68;;;;;;;;;;10514149;28;20333;-70
2023/11/18 07:24:02;;;;;;;1.20;0.70;;;;;;;;;;10510767;28;20019;-71
2023/11/18 07:29:02;;;;;;;2.00;0.95;;;;;;;;;;10513098;28;20396;-71
2023/11/18 07:34:03;;;;;;;4.05;1.77;;;;;;;;;;10508525;28;20052;-70
2023/11/18 07:39:03;;;;;;;2.55;1.38;;;;;;;;;;10515517;28;20024;-71
2023/11/18 07:44:04;;;;;;;2.77;1.20;;;;;;;;;;10515132;28;20311;-71
2023/11/18 07:49:04;;;;;;;2.40;1.70;;;;;;;;;;10521160;28;20079;-71
2023/11/18 07:54:04;;;;;;;3.67;1.42;;;;;;;;;;10524380;28;20317;-73
2023/11/18 07:59:08;;;;;;;1.55;1.25;;;;;;;;;;10508638;28;20248;-69
2023/11/18 08:04:08;;;;;;;1.30;1.20;;;;;;;;;;10495779;28;20318;-70
2023/11/18 08:09:13;;;;;;;1.17;0.82;;;;;;;;;;10520725;28;20073;-70
2023/11/18 08:14:13;;;;;;;2.15;1.13;;;;;;;;;;10507019;28;20206;-71
2023/11/18 08:19:13;;;;;;;1.90;0.80;;;;;;;;;;10518511;28;20091;-70
2023/11/18 08:24:14;;;;;;;2.28;1.52;;;;;;;;;;10511960;28;20329;-70
2023/11/18 08:29:16;;;;;;;4.55;2.33;;;;;;;;;;10518739;28;20036;-69
2023/11/18 08:34:18;;;;;;;1.90;1.30;;;;;;;;;;10526080;28;21092;-69
2023/11/18 08:39:20;;;;;;;1.13;0.73;;;;;;;;;;10528926;28;20004;-74
2023/11/18 08:44:20;;;;;;;1.48;1.13;;;;;;;;;;10515022;28;20079;-74
2023/11/18 08:49:23;;;;;;;0.95;0.90;;;;;;;;;;10521376;28;20023;-75
2023/11/18 08:54:25;;;;;;;1.92;1.27;;;;;;;;;;10520313;28;20085;-75
2023/11/18 08:59:25;;;;;;;9.68;1.52;;;;;;;;;;10520852;28;20017;-76
2023/11/18 09:04:26;;;;;;;3.97;1.27;;;;;;;;;;10523000;28;20040;-71
2023/11/18 09:09:27;;;;;;;2.63;1.10;;;;;;;;;;10528254;28;20020;-69
2023/11/18 09:14:27;;;;;;;1.10;1.00;;;;;;;;;;10519344;28;20019;-68
2023/11/18 09:19:27;;;;;;;1.10;1.00;;;;;;;;;;10498593;28;20192;-67
2023/11/18 09:24:28;;;;;;;9.13;1.52;;;;;;;;;;10521658;28;20271;-67
2023/11/18 09:29:28;;;;;;;1.45;1.10;;;;;;;;;;10511138;28;20020;-68
2023/11/18 09:34:33;;;;;;;2.85;1.05;;;;;;;;;;10522831;28;20393;-68
2023/11/18 09:39:45;;;;;;;5.55;1.70;;;;;;;;;;10519839;28;20022;-68
2023/11/18 09:44:48;;;;;;;1.92;1.00;;;;;;;;;;10519993;28;20020;-69
2023/11/18 09:49:49;;;;;;;1.45;1.35;;;;;;;;;;10521167;28;20179;-69
2023/11/18 09:55:03;;;;;;;0.80;0.77;;;;;;;;;;10527737;28;20060;-70
2023/11/18 10:00:19;;;;;;;4.10;0.90;;;;;;;;;;10515512;28;20059;-69
2023/11/18 10:05:26;;;;;;;1.35;0.85;;;;;;;;;;10520776;28;20204;-80
2023/11/18 10:10:35;;;;;;;2.45;1.10;;;;;;;;;;10518808;28;20245;-69
2023/11/18 10:15:36;;;;;;;1.25;1.10;;;;;;;;;;10518769;28;20024;-69
2023/11/18 10:20:39;;;;;;;2.72;1.48;;;;;;;;;;10515091;28;20021;-77
2023/11/18 10:25:47;;;;;;;2.72;1.00;;;;;;;;;;10514901;28;20032;-70
2023/11/18 10:30:48;;;;;;;1.90;0.95;;;;;;;;;;10523723;28;20496;-71
2023/11/18 10:35:50;;;;;;;4.17;1.30;;;;;;;;;;10517087;28;20093;-70
2023/11/18 10:40:55;;;;;;;2.17;1.13;;;;;;;;;;10511098;28;20023;-70
2023/11/18 10:46:14;;;;;;;1.08;0.88;;;;;;;;;;10514262;28;20020;-71
2023/11/18 10:51:15;;;;;;;9.20;2.03;;;;;;;;;;10508607;28;20028;-72
2023/11/18 10:56:16;;;;;;;3.08;1.70;;;;;;;;;;10515542;28;20293;-71
2023/11/18 11:01:27;;;;;;;3.00;1.13;;;;;;;;;;10517973;28;20021;-73
2023/11/18 11:06:30;;;;;;;1.13;0.73;;;;;;;;;;10515524;28;20353;-73
2023/11/18 11:11:37;;;;;;;5.35;0.85;;;;;;;;;;10507171;28;20081;-72
2023/11/18 11:16:43;;;;;;;2.30;1.05;;;;;;;;;;10520915;28;20087;-72
2023/11/18 11:21:47;;;;;;;1.40;0.98;;;;;;;;;;10521241;28;20743;-73
2023/11/18 11:26:56;;;;;;;1.83;1.13;;;;;;;;;;10509238;28;20088;-73
2023/11/18 11:32:18;;;;;;;3.50;1.38;;;;;;;;;;10504578;28;20055;-73
2023/11/18 11:37:19;;;;;;;1.00;0.90;;;;;;;;;;10489231;28;20342;-72
2023/11/18 11:42:20;;;;;;;1.42;1.25;;;;;;;;;;10506992;28;20024;-71
2023/11/18 11:47:23;;;;;;;1.65;0.90;;;;;;;;;;10512329;28;20028;-73
2023/11/18 11:52:27;;;;;;;2.00;1.38;;;;;;;;;;10514287;28;20471;-73
2023/11/18 11:57:28;;;;;;;2.03;1.58;;;;;;;;;;10521062;28;20091;-73
2023/11/18 12:02:29;;;;;;;3.97;1.30;;;;;;;;;;10512399;28;20330;-71
2023/11/18 12:07:32;;;;;;;1.77;1.25;;;;;;;;;;10520129;28;20020;-70
2023/11/18 12:12:33;;;;;;;2.40;1.15;;;;;;;;;;10520125;28;20199;-71
2023/11/18 12:17:58;;;;;;;3.05;1.13;;;;;;;;;;10518881;28;20020;-71
2023/11/18 12:23:04;;;;;;;7.93;1.42;;;;;;;;;;10529962;28;20032;-71
2023/11/18 12:28:08;;;;;;;1.90;1.30;;;;;;;;;;10513801;28;20321;-72
2023/11/18 12:33:08;;;;;;;2.90;1.73;;;;;;;;;;10523469;28;20040;-70
2023/11/18 12:38:29;;;;;;;3.30;1.60;;;;;;;;;;10493165;28;20012;-71
2023/11/18 12:43:52;;;;;;;3.00;1.85;;;;;;;;;;10528026;28;20202;-72
2023/11/18 12:48:56;;;;;;;1.50;1.35;;;;;;;;;;10521537;28;20107;-71
2023/11/18 12:53:58;;;;;;;1.95;1.67;;;;;;;;;;10526406;28;20025;-71
2023/11/18 12:58:59;;;;;;;1.23;1.13;;;;;;;;;;10529104;28;20035;-71
2023/11/18 13:04:01;;;;;;;2.17;1.80;;;;;;;;;;10506860;28;20027;-71
2023/11/18 13:09:05;;;;;;;2.63;1.40;;;;;;;;;;10527437;28;20028;-71
2023/11/18 13:14:06;;;;;;;2.58;1.50;;;;;;;;;;10515707;28;20073;-72
2023/11/18 13:19:09;;;;;;;2.35;2.05;;;;;;;;;;10520982;28;20024;-71
2023/11/18 13:24:10;;;;;;;3.78;1.80;;;;;;;;;;10518076;28;20020;-71
2023/11/18 13:29:10;;;;;;;6.20;1.90;;;;;;;;;;10525748;28;20021;-71
2023/11/18 13:34:11;;;;;;;2.03;1.83;;;;;;;;;;10512978;28;20344;-71
2023/11/18 13:39:20;;;;;;;8.55;1.92;;;;;;;;;;10502830;28;20031;-71
2023/11/18 13:44:39;;;;;;;3.15;1.98;;;;;;;;;;10512306;28;20434;-71
2023/11/18 13:49:42;;;;;;;;;;;;;;;;;;10522927;28;20035;-72
2023/11/18 13:54:44;;;;;;;4.25;2.25;;;;;;;;;;10516712;28;20230;-71
2023/11/18 13:59:45;;;;;;;2.70;1.83;;;;;;;;;;10508419;28;20488;-71
2023/11/18 14:04:46;;;;;;;3.53;2.38;;;;;;;;;;10513460;28;20207;-71
2023/11/18 14:09:47;;;;;;;7.80;2.13;;;;;;;;;;10509887;28;20227;-71
2023/11/18 14:14:49;;;;;;;5.47;2.42;;;;;;;;;;10513343;28;20119;-71
2023/11/18 14:19:52;;;;;;;4.15;2.60;;;;;;;;;;10517433;28;20016;-72
2023/11/18 14:24:53;;;;;;;3.15;2.30;;;;;;;;;;10521869;28;20016;-70
2023/11/18 14:29:54;;;;;;;5.05;3.28;;;;;;;;;;10521041;28;20023;-72
2023/11/18 14:34:56;;;;;;;2.23;2.07;;;;;;;;;;10528236;28;20103;-72
2023/11/18 14:39:57;;;;;;;5.40;3.38;;;;;;;;;;10523413;28;20287;-72
2023/11/18 14:44:57;;;;;;;6.13;3.63;;;;;;;;;;10518656;28;20089;-72
2023/11/18 14:49:58;;;;;;;6.50;3.43;;;;;;;;;;10516694;28;20032;-72
2023/11/18 14:54:58;;;;;;;5.80;2.47;;;;;;;;;;10529347;28;20555;-71
2023/11/18 14:59:59;;;;;;;2.67;2.47;;;;;;;;;;10518947;28;20162;-71
2023/11/18 15:04:59;;;;;;;5.82;3.17;;;;;;;;;;10518568;28;20028;-71
2023/11/18 15:09:59;;;;;;;3.58;2.95;;;;;;;;;;10513100;28;20234;-70
2023/11/18 15:15:00;;;;;;;3.90;2.72;;;;;;;;;;10521178;28;20094;-71
2023/11/18 15:20:00;;;;;;;5.80;3.63;;;;;;;;;;10523839;28;20344;-70
2023/11/18 15:25:00;;;;;;;15.07;4.50;;;;;;;;;;10517519;28;20183;-69
2023/11/18 15:30:02;;;;;;;4.10;3.42;;;;;;;;;;10497177;28;20032;-71
2023/11/18 15:35:02;;;;;;;8.45;3.90;;;;;;;;;;10519865;28;20389;-70
2023/11/18 15:40:12;;;;;;;5.17;3.13;;;;;;;;;;10517385;28;20107;-71
2023/11/18 15:45:14;;;;;;;2.83;2.13;;;;;;;;;;10518281;28;20023;-71
2023/11/18 15:50:15;;;;;;;3.92;3.60;;;;;;;;;;10522427;28;20265;-71
2023/11/18 15:55:17;;;;;;;4.45;3.55;;;;;;;;;;10522724;28;20310;-71
2023/11/18 16:00:20;;;;;;;7.57;3.05;;;;;;;;;;10507677;28;20023;-71
2023/11/18 16:05:21;;;;;;;3.90;3.33;;;;;;;;;;10528429;28;20011;-71
2023/11/18 16:10:22;;;;;;;4.55;3.10;;;;;;;;;;10516949;28;20365;-72
2023/11/18 16:15:23;;;;;;;4.32;2.83;;;;;;;;;;10506942;28;20256;-70
2023/11/18 16:20:25;;;;;;;7.20;3.33;;;;;;;;;;10511897;28;20209;-71
2023/11/18 16:25:29;;;;;;;5.32;3.20;;;;;;;;;;10514491;28;20232;-71
2023/11/18 16:30:30;;;;;;;6.55;2.88;;;;;;;;;;10511912;28;20046;-71
2023/11/18 16:35:30;;;;;;;8.82;2.60;;;;;;;;;;10517370;28;20043;-71
2023/11/18 16:40:32;;;;;;;2.57;2.37;;;;;;;;;;10519385;28;20215;-71
2023/11/18 16:45:33;;;;;;;8.00;3.10;;;;;;;;;;10516941;28;20027;-71
2023/11/18 16:50:35;;;;;;;3.28;2.78;;;;;;;;;;10520215;28;20504;-71
2023/11/18 16:55:35;;;;;;;3.33;2.50;;;;;;;;;;10505960;28;20040;-71
2023/11/18 17:00:37;;;;;;;3.45;2.28;;;;;;;;;;10523474;28;20328;-72
2023/11/18 17:05:37;;;;;;;3.53;2.05;;;;;;;;;;10527084;28;20027;-71
2023/11/18 17:10:37;;;;;;;5.85;2.92;;;;;;;;;;10523096;28;20023;-72
2023/11/18 17:15:38;;;;;;;4.63;3.17;;;;;;;;;;10523688;28;20206;-71
2023/11/18 17:20:38;;;;;;;5.57;2.92;;;;;;;;;;10517626;28;20012;-70
2023/11/18 17:25:38;;;;;;;8.60;2.83;;;;;;;;;;10517515;28;20079;-71
2023/11/18 17:30:38;;;;;;;7.10;2.45;;;;;;;;;;10523756;28;20030;-71
2023/11/18 17:35:40;;;;;;;8.15;2.92;;;;;;;;;;10518701;28;20260;-71
2023/11/18 17:40:41;;;;;;;3.80;2.30;;;;;;;;;;10523037;28;20027;-71
2023/11/18 17:45:42;;;;;;;4.47;2.60;;;;;;;;;;10515157;28;20032;-71
2023/11/18 17:50:42;;;;;;;3.15;2.00;;;;;;;;;;10508970;28;20031;-71
2023/11/18 17:55:46;;;;;;;4.68;2.42;;;;;;;;;;10524760;28;20039;-71
2023/11/18 18:00:47;;;;;;;9.35;2.85;;;;;;;;;;10528259;28;20024;-72
2023/11/18 18:05:47;;;;;;;2.85;2.13;;;;;;;;;;10524646;28;20318;-72
2023/11/18 18:10:48;;;;;;;3.27;2.40;;;;;;;;;;10523354;28;20266;-72
2023/11/18 18:15:48;;;;;;;3.65;2.70;;;;;;;;;;10529404;28;20196;-71
2023/11/18 18:20:49;;;;;;;6.55;2.95;;;;;;;;;;10517087;28;20020;-70
2023/11/18 18:25:49;;;;;;;2.73;2.23;;;;;;;;;;10520794;28;20020;-71
2023/11/18 18:30:49;;;;;;;6.72;2.17;;;;;;;;;;10517355;28;20051;-71
2023/11/18 18:35:50;;;;;;;3.58;1.90;;;;;;;;;;10515811;28;20279;-70
2023/11/18 18:40:50;;;;;;;3.03;2.25;;;;;;;;;;10520129;28;20028;-72
2023/11/18 18:45:50;;;;;;;2.33;2.13;;;;;;;;;;10516738;28;20083;-71
2023/11/18 18:50:50;;;;;;;4.55;2.80;;;;;;;;;;10520350;28;20245;-72
2023/11/18 18:55:51;;;;;;;4.90;2.47;;;;;;;;;;10519379;28;20032;-71
2023/11/18 19:00:52;;;;;;;4.18;2.70;;;;;;;;;;10519638;28;20016;-71
2023/11/18 19:05:52;;;;;;;4.15;2.53;;;;;;;;;;10535591;28;20383;-72
2023/11/18 19:10:52;;;;;;;3.97;2.35;;;;;;;;;;10504716;28;20102;-70
2023/11/18 19:15:53;;;;;;;3.88;2.40;;;;;;;;;;10530336;28;20035;-69
2023/11/18 19:20:53;;;;;;;4.03;2.15;;;;;;;;;;10516902;28;20020;-69
2023/11/18 19:25:53;;;;;;;2.80;2.22;;;;;;;;;;10516301;28;20040;-70
2023/11/18 19:30:54;;;;;;;4.93;2.37;;;;;;;;;;10517383;28;20253;-69
2023/11/18 19:35:55;;;;;;;4.97;2.30;;;;;;;;;;10500306;28;20028;-69
2023/11/18 19:40:56;;;;;;;2.95;2.15;;;;;;;;;;10520056;28;20044;-69
2023/11/18 19:45:57;;;;;;;4.38;2.65;;;;;;;;;;10501067;28;20091;-69
2023/11/18 19:50:57;;;;;;;3.90;2.45;;;;;;;;;;10515561;28;20184;-69
2023/11/18 19:55:57;;;;;;;2.90;1.93;;;;;;;;;;10517168;28;20027;-69
2023/11/18 20:00:57;;;;;;;3.58;2.40;;;;;;;;;;10519237;28;20032;-71
2023/11/18 20:05:58;;;;;;;3.28;2.13;;;;;;;;;;10513999;28;20024;-70
2023/11/18 20:10:58;;;;;;;4.38;2.42;;;;;;;;;;10523762;28;20051;-70
2023/11/18 20:15:58;;;;;;;5.18;2.85;;;;;;;;;;10503995;28;20250;-69
2023/11/18 20:20:58;;;;;;;2.20;2.00;;;;;;;;;;10516692;28;20016;-69
2023/11/18 20:25:59;;;;;;;3.35;2.08;;;;;;;;;;10515201;28;20337;-70
2023/11/18 20:30:59;;;;;;;3.55;2.25;;;;;;;;;;10524595;28;20043;-70
2023/11/18 20:36:02;;;;;;;3.03;2.15;;;;;;;;;;10525405;28;20099;-72
2023/11/18 20:41:02;;;;;;;2.83;2.00;;;;;;;;;;10520725;28;20118;-69
2023/11/18 20:46:03;;;;;;;5.23;3.47;;;;;;;;;;10516771;28;20016;-69
2023/11/18 20:51:04;;;;;;;3.53;2.50;;;;;;;;;;10527921;28;20270;-69
2023/11/18 20:56:05;;;;;;;3.42;2.50;;;;;;;;;;10526343;28;20028;-69
2023/11/18 21:01:10;;;;;;;4.10;2.78;;;;;;;;;;10524147;28;20020;-70
2023/11/18 21:06:10;;;;;;;4.00;2.72;;;;;;;;;;10521273;28;20036;-70
2023/11/18 21:11:13;;;;;;;6.15;2.70;;;;;;;;;;10518960;28;20028;-70
2023/11/18 21:16:13;;;;;;;2.85;2.40;;;;;;;;;;10527941;28;20322;-70
2023/11/18 21:21:14;;;;;;;4.43;2.53;;;;;;;;;;10528878;28;20016;-69
2023/11/18 21:26:14;;;;;;;3.72;2.92;;;;;;;;;;10523121;28;20091;-70
2023/11/18 21:31:16;;;;;;;2.63;2.37;;;;;;;;;;10531936;28;20024;-69
2023/11/18 21:36:16;;;;;;;3.03;2.42;;;;;;;;;;10523025;28;20410;-70
2023/11/18 21:41:17;;;;;;;2.78;2.42;;;;;;;;;;10519180;28;20038;-69
2023/11/18 21:46:18;;;;;;;4.20;3.15;;;;;;;;;;10529918;28;20325;-68
2023/11/18 21:51:18;;;;;;;4.25;2.65;;;;;;;;;;10524517;28;20234;-69
2023/11/18 21:56:20;;;;;;;4.95;2.88;;;;;;;;;;10524310;28;20012;-69
2023/11/18 22:01:20;;;;;;;3.47;3.08;;;;;;;;;;10526608;28;20207;-70
2023/11/18 22:06:24;;;;;;;2.63;2.22;;;;;;;;;;10517028;28;20126;-70
2023/11/18 22:11:24;;;;;;;3.90;2.25;;;;;;;;;;10504051;28;20012;-70
2023/11/18 22:16:27;;;;;;;2.50;2.17;;;;;;;;;;10523328;28;20043;-70
2023/11/18 22:21:28;;;;;;;3.38;2.33;;;;;;;;;;10533409;28;20356;-69
2023/11/18 22:26:29;;;;;;;3.92;2.67;;;;;;;;;;10525657;28;20075;-70
2023/11/18 22:31:29;;;;;;;2.55;2.35;;;;;;;;;;10528312;28;20078;-69
2023/11/18 22:36:34;;;;;;;2.60;2.15;;;;;;;;;;10515210;28;20043;-69
2023/11/18 22:41:35;;;;;;;3.42;2.30;;;;;;;;;;10524486;28;20180;-69
2023/11/18 22:46:35;;;;;;;4.47;3.10;;;;;;;;;;10508192;28;20009;-69
2023/11/18 22:51:36;;;;;;;2.63;2.23;;;;;;;;;;10526018;28;20023;-69
2023/11/18 22:56:36;;;;;;;4.88;3.60;;;;;;;;;;10518974;28;20628;-68
2023/11/18 23:01:39;;;;;;;3.35;2.65;;;;;;;;;;10518442;28;20040;-70
2023/11/18 23:06:40;;;;;;;5.88;3.33;;;;;;;;;;10525909;28;20337;-69
2023/11/18 23:11:42;;;;;;;5.50;2.92;;;;;;;;;;10515661;28;20027;-69
2023/11/18 23:16:43;;;;;;;6.97;2.85;;;;;;;;;;10519773;28;20053;-69
2023/11/18 23:21:43;;;;;;;3.42;3.03;;;;;;;;;;10524603;28;20020;-69
2023/11/18 23:26:44;;;;;;;4.40;3.05;;;;;;;;;;10512696;28;20296;-69
2023/11/18 23:31:44;;;;;;;5.55;3.92;;;;;;;;;;10519364;28;20125;-69
2023/11/18 23:36:44;;;;;;;4.13;2.95;;;;;;;;;;10515377;28;20059;-69
2023/11/18 23:41:45;;;;;;;3.65;2.83;;;;;;;;;;10516907;28;20190;-70
2023/11/18 23:46:46;;;;;;;7.90;3.80;;;;;;;;;;10522333;28;20027;-69
2023/11/18 23:51:46;;;;;;;4.68;3.40;;;;;;;;;;10523021;28;20094;-69
2023/11/18 23:56:46;;;;;;;6.43;3.47;;;;;;;;;;10513567;28;20032;-69
